Time;durP1;ratioP1;P1;durP2;ratioP2;P2;SDS_P1;SDS_P2;PMS_P1;PMS_P2;Temp;Humidity;BMP_temperature;BMP_pressure;BME280_temperature;BME280_humidity;BME280_pressure;Samples;Min_cycle;Max_cycle;Signal;HPM_P1;HPM_P2
2024/01/30 00:02:12;;;;;;;29.37;17.43;;;8.00;97.30;;;;;;760648;185;27081;-79
2024/01/30 00:04:39;;;;;;;33.23;17.67;;;8.00;97.30;;;;;;764502;187;26547;-78
2024/01/30 00:07:05;;;;;;;33.17;18.33;;;8.00;97.30;;;;;;764487;188;26521;-79
2024/01/30 00:09:32;;;;;;;31.57;17.23;;;8.00;97.30;;;;;;764417;187;26531;-79
2024/01/30 00:11:58;;;;;;;31.10;18.00;;;8.10;97.30;;;;;;765990;187;27026;-78
2024/01/30 00:14:25;;;;;;;30.03;18.00;;;8.00;97.20;;;;;;764655;187;26658;-78
2024/01/30 00:16:51;;;;;;;30.77;18.20;;;8.00;97.30;;;;;;767392;187;27041;-79
2024/01/30 00:19:18;;;;;;;29.77;18.57;;;8.00;97.30;;;;;;767438;187;26520;-78
2024/01/30 00:21:45;;;;;;;31.10;17.53;;;8.00;97.40;;;;;;765329;187;27039;-77
2024/01/30 00:24:11;;;;;;;31.40;17.30;;;7.90;97.50;;;;;;754746;188;26572;-79
2024/01/30 00:26:38;;;;;;;33.17;17.40;;;7.90;97.50;;;;;;763828;187;27088;-79
2024/01/30 00:29:04;;;;;;;31.47;18.50;;;8.00;97.70;;;;;;764225;185;26518;-79
2024/01/30 00:31:31;;;;;;;35.33;18.43;;;7.90;97.60;;;;;;765132;185;26504;-79
2024/01/30 00:33:58;;;;;;;34.57;18.77;;;7.90;97.60;;;;;;765855;187;26579;-78
2024/01/30 00:36:24;;;;;;;31.67;17.37;;;7.90;97.80;;;;;;750026;191;27210;-79
2024/01/30 00:38:51;;;;;;;34.97;18.07;;;7.90;97.80;;;;;;758804;188;26523;-79
2024/01/30 00:41:19;;;;;;;29.83;18.67;;;7.80;97.90;;;;;;760765;188;27100;-78
2024/01/30 00:43:45;;;;;;;31.27;18.90;;;7.80;97.90;;;;;;737075;191;26545;-80
2024/01/30 00:46:11;;;;;;;32.10;18.23;;;7.80;98.00;;;;;;750562;191;27171;-77
2024/01/30 00:48:38;;;;;;;33.10;17.93;;;7.80;97.90;;;;;;760429;188;26525;-79
2024/01/30 00:51:05;;;;;;;32.50;16.90;;;7.80;97.90;;;;;;765300;186;27065;-79
2024/01/30 00:53:31;;;;;;;34.00;17.63;;;7.90;97.90;;;;;;766022;187;26502;-80
2024/01/30 00:55:58;;;;;;;31.10;18.00;;;7.80;97.80;;;;;;766923;187;26513;-80
2024/01/30 00:58:24;;;;;;;32.57;17.80;;;7.80;97.80;;;;;;766342;188;26596;-79
2024/01/30 01:00:51;;;;;;;30.83;17.50;;;7.80;98.00;;;;;;764778;188;26527;-80
2024/01/30 01:03:18;;;;;;;33.57;19.80;;;7.80;97.80;;;;;;757939;187;26494;-79
2024/01/30 01:05:44;;;;;;;32.23;19.00;;;7.80;97.80;;;;;;758980;188;26510;-78
2024/01/30 01:08:11;;;;;;;31.70;18.33;;;7.80;98.00;;;;;;759168;188;26539;-79
2024/01/30 01:10:37;;;;;;;33.00;20.27;;;7.80;98.00;;;;;;757950;187;26560;-80
2024/01/30 01:13:04;;;;;;;35.10;18.30;;;7.70;98.00;;;;;;766417;187;26503;-78
2024/01/30 01:15:31;;;;;;;34.77;19.17;;;7.80;98.00;;;;;;765990;187;26513;-79
2024/01/30 01:17:58;;;;;;;30.07;17.20;;;7.80;98.00;;;;;;764086;187;27054;-79
2024/01/30 01:20:24;;;;;;;36.63;19.93;;;7.80;97.90;;;;;;764272;188;26694;-80
2024/01/30 01:22:52;;;;;;;30.23;18.73;;;7.80;98.10;;;;;;766319;184;26489;-79
2024/01/30 01:25:17;;;;;;;33.50;17.23;;;7.80;98.00;;;;;;766186;184;26672;-78
2024/01/30 01:27:51;;;;;;;34.73;19.97;;;7.80;98.00;;;;;;765889;184;26498;-79
2024/01/30 01:30:11;;;;;;;32.67;19.37;;;7.80;98.10;;;;;;764576;187;26654;-79
2024/01/30 01:32:38;;;;;;;30.43;19.33;;;7.80;98.00;;;;;;764231;187;26640;-76
2024/01/30 01:35:05;;;;;;;28.33;18.43;;;7.80;98.20;;;;;;763055;187;26521;-79
2024/01/30 01:37:31;;;;;;;31.77;18.90;;;7.90;97.90;;;;;;763248;187;27053;-78
2024/01/30 01:39:57;;;;;;;33.13;18.30;;;8.00;97.80;;;;;;762937;187;26542;-79
2024/01/30 01:42:24;;;;;;;32.97;18.27;;;8.00;97.90;;;;;;764808;187;26498;-79
2024/01/30 01:44:51;;;;;;;33.10;18.37;;;7.90;97.70;;;;;;762799;188;26517;-76
2024/01/30 01:47:17;;;;;;;30.53;17.93;;;7.90;97.90;;;;;;762287;187;26540;-79
2024/01/30 01:49:44;;;;;;;31.07;17.53;;;7.90;97.70;;;;;;759170;188;26521;-79
2024/01/30 01:52:11;;;;;;;27.67;17.60;;;8.00;97.60;;;;;;752656;188;26498;-79
2024/01/30 01:54:37;;;;;;;29.53;17.17;;;8.00;97.50;;;;;;755254;187;26526;-77
2024/01/30 01:57:05;;;;;;;36.20;18.10;;;8.00;97.40;;;;;;757943;188;27079;-77
2024/01/30 01:59:31;;;;;;;30.77;18.23;;;8.00;97.60;;;;;;764862;187;26517;-80
2024/01/30 02:01:58;;;;;;;28.90;16.90;;;8.00;97.50;;;;;;763075;186;26535;-77
2024/01/30 02:04:24;;;;;;;26.13;16.60;;;8.00;97.50;;;;;;756679;186;26489;-79
2024/01/30 02:06:51;;;;;;;31.83;17.27;;;8.10;97.50;;;;;;760400;188;26554;-79
2024/01/30 02:09:18;;;;;;;31.80;17.83;;;8.10;97.30;;;;;;762376;187;26535;-79
2024/01/30 02:11:44;;;;;;;28.30;16.57;;;8.10;97.20;;;;;;756610;186;27034;-79
2024/01/30 02:14:11;;;;;;;27.20;16.97;;;8.10;97.20;;;;;;760138;186;26494;-79
2024/01/30 02:16:37;;;;;;;30.33;17.23;;;8.10;97.30;;;;;;760101;184;27049;-79
2024/01/30 02:19:05;;;;;;;30.43;17.00;;;8.10;97.40;;;;;;757036;187;26531;-79
2024/01/30 02:21:31;;;;;;;28.47;16.27;;;8.10;97.60;;;;;;762884;183;27034;-80
2024/01/30 02:23:57;;;;;;;30.73;17.27;;;8.10;97.30;;;;;;758755;187;26504;-80
2024/01/30 02:26:24;;;;;;;33.03;16.33;;;8.00;97.40;;;;;;757626;188;27124;-77
2024/01/30 02:28:50;;;;;;;34.47;18.37;;;8.00;97.40;;;;;;756536;185;26549;-79
2024/01/30 02:31:17;;;;;;;28.17;16.83;;;8.10;97.30;;;;;;760971;184;26525;-79
2024/01/30 02:33:44;;;;;;;31.40;16.63;;;8.10;97.20;;;;;;758694;187;26502;-79
2024/01/30 02:36:10;;;;;;;29.83;16.17;;;8.10;97.30;;;;;;762881;187;27388;-79
2024/01/30 02:38:37;;;;;;;29.57;16.67;;;8.10;97.40;;;;;;757914;187;26523;-79
2024/01/30 02:41:04;;;;;;;31.13;17.13;;;8.10;97.30;;;;;;757426;187;27138;-79
2024/01/30 02:43:30;;;;;;;28.43;16.70;;;8.10;97.20;;;;;;756674;188;26495;-79
2024/01/30 02:45:59;;;;;;;28.50;15.87;;;8.10;97.40;;;;;;763779;188;26514;-80
2024/01/30 02:48:24;;;;;;;26.37;15.20;;;8.20;97.00;;;;;;761009;187;26595;-79
2024/01/30 02:50:50;;;;;;;25.03;16.00;;;8.10;97.00;;;;;;759158;188;26527;-76
2024/01/30 02:53:17;;;;;;;27.13;15.53;;;8.10;97.10;;;;;;760237;188;26519;-79
2024/01/30 02:55:43;;;;;;;29.17;16.27;;;8.10;97.20;;;;;;760858;187;26514;-78
2024/01/30 02:58:10;;;;;;;25.73;16.40;;;8.10;97.30;;;;;;756097;187;26519;-79
2024/01/30 03:00:37;;;;;;;28.83;16.90;;;8.10;97.00;;;;;;761596;187;26516;-78
2024/01/30 03:03:03;;;;;;;27.47;15.73;;;8.10;97.20;;;;;;745502;191;26521;-79
2024/01/30 03:05:30;;;;;;;28.93;16.47;;;8.10;97.10;;;;;;756542;188;26643;-80
2024/01/30 03:07:57;;;;;;;29.73;16.30;;;8.10;97.10;;;;;;757610;187;26565;-78
2024/01/30 03:10:23;;;;;;;30.70;16.87;;;8.10;97.20;;;;;;752457;188;27081;-80
2024/01/30 03:12:50;;;;;;;31.07;16.50;;;8.10;97.10;;;;;;752422;188;26492;-77
2024/01/30 03:15:16;;;;;;;27.50;16.60;;;8.00;97.20;;;;;;754044;187;26505;-77
2024/01/30 03:17:43;;;;;;;28.27;16.50;;;8.10;97.20;;;;;;757998;187;27122;-78
2024/01/30 03:20:10;;;;;;;27.53;15.70;;;8.10;97.10;;;;;;764254;186;26517;-79
2024/01/30 03:22:37;;;;;;;32.13;15.83;;;8.00;97.20;;;;;;760052;187;26514;-78
2024/01/30 03:25:04;;;;;;;24.30;15.70;;;8.00;97.30;;;;;;762541;187;26509;-78
2024/01/30 03:27:30;;;;;;;26.97;16.00;;;8.00;97.20;;;;;;758742;188;26669;-78
2024/01/30 03:29:57;;;;;;;28.03;15.83;;;8.10;97.30;;;;;;760102;187;26544;-79
2024/01/30 03:32:23;;;;;;;26.90;16.17;;;8.10;97.20;;;;;;759093;185;28131;-78
2024/01/30 03:34:50;;;;;;;28.07;16.57;;;8.10;97.00;;;;;;759223;188;26495;-78
2024/01/30 03:37:17;;;;;;;27.03;15.63;;;8.10;97.20;;;;;;761930;187;26495;-79
2024/01/30 03:39:43;;;;;;;28.00;16.60;;;8.10;97.10;;;;;;751790;187;26539;-79
2024/01/30 03:42:10;;;;;;;30.10;16.10;;;8.10;97.00;;;;;;757583;187;26491;-79
2024/01/30 03:44:37;;;;;;;25.90;17.13;;;8.20;97.00;;;;;;758931;187;26494;-77
2024/01/30 03:47:03;;;;;;;30.60;16.43;;;8.10;97.10;;;;;;758130;188;26498;-80
2024/01/30 03:49:30;;;;;;;29.37;17.00;;;8.10;97.10;;;;;;755256;187;26503;-79
2024/01/30 03:51:57;;;;;;;31.50;17.50;;;8.10;97.10;;;;;;754217;190;27050;-79
2024/01/30 03:54:23;;;;;;;26.60;16.87;;;8.10;97.00;;;;;;761851;187;26504;-80
2024/01/30 03:56:50;;;;;;;30.37;16.80;;;8.10;97.00;;;;;;767310;185;26492;-76
2024/01/30 03:59:22;;;;;;;32.27;17.23;;;8.20;97.00;;;;;;763235;185;26504;-77
2024/01/30 04:01:43;;;;;;;29.23;17.00;;;8.20;96.80;;;;;;766118;187;26512;-79
2024/01/30 04:04:09;;;;;;;27.90;17.07;;;8.20;96.90;;;;;;762078;187;26496;-79
2024/01/30 04:06:37;;;;;;;31.07;16.57;;;8.10;96.80;;;;;;752913;186;26519;-79
2024/01/30 04:09:03;;;;;;;27.33;16.40;;;8.10;96.80;;;;;;760993;187;26576;-75
2024/01/30 04:11:29;;;;;;;34.07;17.63;;;8.10;97.10;;;;;;752716;187;26508;-79
2024/01/30 04:13:56;;;;;;;30.10;16.67;;;8.10;97.10;;;;;;758547;187;26664;-79
2024/01/30 04:16:22;;;;;;;27.33;16.37;;;8.10;97.20;;;;;;757549;188;26514;-80
2024/01/30 04:18:49;;;;;;;27.93;16.47;;;8.00;97.20;;;;;;758592;188;26642;-79
2024/01/30 04:21:16;;;;;;;33.67;17.80;;;8.00;97.20;;;;;;745440;191;26540;-79
2024/01/30 04:23:42;;;;;;;32.27;17.30;;;8.00;97.40;;;;;;758191;188;27043;-79
2024/01/30 04:26:09;;;;;;;35.00;17.63;;;7.90;97.30;;;;;;757289;185;26479;-77
2024/01/30 04:28:36;;;;;;;34.07;17.80;;;7.90;97.30;;;;;;763779;187;26537;-79
2024/01/30 04:31:02;;;;;;;35.03;17.10;;;7.90;97.40;;;;;;764019;183;26533;-79
2024/01/30 04:33:29;;;;;;;26.73;16.73;;;7.80;97.60;;;;;;762925;184;26695;-78
2024/01/30 04:35:55;;;;;;;34.57;17.30;;;7.70;97.70;;;;;;763433;186;26538;-78
2024/01/30 04:38:22;;;;;;;34.77;18.23;;;7.70;97.90;;;;;;764080;187;26528;-79
2024/01/30 04:40:49;;;;;;;31.10;17.03;;;7.70;98.10;;;;;;765779;187;26490;-77
2024/01/30 04:43:15;;;;;;;34.43;17.57;;;7.70;97.90;;;;;;766535;187;26501;-78
2024/01/30 04:45:42;;;;;;;30.10;17.17;;;7.60;98.00;;;;;;765864;187;26549;-79
2024/01/30 04:48:08;;;;;;;34.10;18.27;;;7.60;98.10;;;;;;740154;191;26521;-79
2024/01/30 04:50:36;;;;;;;30.57;18.00;;;7.60;98.20;;;;;;754920;188;26497;-79
2024/01/30 04:53:02;;;;;;;29.80;17.13;;;7.60;98.30;;;;;;750302;188;26488;-79
2024/01/30 04:55:28;;;;;;;33.40;19.43;;;7.60;98.40;;;;;;760344;187;26516;-77
2024/01/30 04:57:55;;;;;;;32.07;19.90;;;7.50;98.30;;;;;;762830;188;26522;-79
2024/01/30 05:00:21;;;;;;;33.43;18.23;;;7.50;98.60;;;;;;762841;185;26520;-78
2024/01/30 05:02:48;;;;;;;27.83;17.87;;;7.40;98.50;;;;;;762783;188;26490;-79
2024/01/30 05:05:15;;;;;;;33.17;18.17;;;7.40;98.60;;;;;;758492;186;26492;-76
2024/01/30 05:07:41;;;;;;;32.37;18.23;;;7.40;98.60;;;;;;759186;186;26492;-78
2024/01/30 05:10:08;;;;;;;32.97;18.30;;;7.50;98.70;;;;;;762812;187;26597;-78
2024/01/30 05:12:35;;;;;;;34.77;18.07;;;7.50;98.60;;;;;;762669;188;26553;-78
2024/01/30 05:15:01;;;;;;;29.97;18.90;;;7.50;98.60;;;;;;763068;188;27093;-79
2024/01/30 05:17:28;;;;;;;32.67;17.37;;;7.40;98.70;;;;;;762846;187;27095;-78
2024/01/30 05:19:54;;;;;;;32.77;18.30;;;7.50;98.60;;;;;;763217;188;26518;-78
2024/01/30 05:22:21;;;;;;;31.40;17.97;;;7.50;98.60;;;;;;762864;188;26490;-78
2024/01/30 05:24:48;;;;;;;31.90;17.63;;;7.40;98.70;;;;;;765168;185;26492;-80
2024/01/30 05:27:14;;;;;;;35.27;18.33;;;7.40;98.70;;;;;;745393;188;26525;-80
2024/01/30 05:29:41;;;;;;;33.87;18.40;;;7.50;98.60;;;;;;811624;170;27184;-76
2024/01/30 05:32:07;;;;;;;35.03;17.67;;;7.50;98.50;;;;;;808907;174;26443;-77
2024/01/30 05:34:34;;;;;;;29.97;17.97;;;7.50;98.70;;;;;;819533;173;26462;-77
2024/01/30 05:37:01;;;;;;;33.40;18.00;;;7.40;99.00;;;;;;810934;175;26403;-77
2024/01/30 05:39:27;;;;;;;40.43;18.37;;;7.40;98.80;;;;;;801755;174;26478;-76
2024/01/30 05:41:54;;;;;;;30.83;17.73;;;7.40;98.70;;;;;;813836;176;26457;-77
2024/01/30 05:44:20;;;;;;;33.93;18.57;;;7.40;98.60;;;;;;827947;172;26932;-77
2024/01/30 05:46:47;;;;;;;29.93;18.23;;;7.40;98.80;;;;;;818144;174;26469;-77
2024/01/30 05:49:14;;;;;;;34.07;18.10;;;7.40;98.80;;;;;;819592;172;28116;-78
2024/01/30 05:51:40;;;;;;;32.33;18.40;;;7.40;98.70;;;;;;812288;176;26427;-79
2024/01/30 05:54:07;;;;;;;34.70;18.07;;;7.40;98.60;;;;;;817683;174;26449;-77
2024/01/30 05:56:33;;;;;;;35.73;19.20;;;7.50;98.60;;;;;;807849;178;26458;-75
2024/01/30 05:59:00;;;;;;;33.37;19.93;;;7.40;98.50;;;;;;808093;178;26542;-76
2024/01/30 06:01:27;;;;;;;29.23;17.57;;;7.40;98.50;;;;;;814450;174;26404;-77
2024/01/30 06:03:53;;;;;;;35.87;18.43;;;7.50;98.50;;;;;;818900;173;26553;-77
2024/01/30 06:06:20;;;;;;;30.80;18.40;;;7.50;98.40;;;;;;824979;174;26410;-77
2024/01/30 06:08:46;;;;;;;35.07;17.70;;;7.50;98.40;;;;;;825857;174;26434;-75
2024/01/30 06:11:13;;;;;;;34.30;18.33;;;7.40;98.50;;;;;;826359;173;26414;-78
2024/01/30 06:13:41;;;;;;;30.53;18.27;;;7.40;98.40;;;;;;827202;174;26443;-79
2024/01/30 06:16:10;;;;;;;34.63;18.63;;;7.30;98.50;;;;;;826774;173;26422;-78
2024/01/30 06:18:36;;;;;;;29.60;17.27;;;7.30;98.70;;;;;;826409;173;26438;-77
2024/01/30 06:21:03;;;;;;;34.57;18.87;;;7.40;98.70;;;;;;822675;172;26403;-74
2024/01/30 06:23:29;;;;;;;35.33;18.20;;;7.40;98.80;;;;;;821280;174;26985;-73
2024/01/30 06:25:57;;;;;;;29.87;17.90;;;7.40;98.70;;;;;;822286;173;26572;-76
2024/01/30 06:28:23;;;;;;;28.93;18.23;;;7.50;98.80;;;;;;825778;174;26455;-78
2024/01/30 06:30:50;;;;;;;29.17;17.87;;;7.50;98.70;;;;;;821569;174;26444;-78
2024/01/30 06:33:17;;;;;;;27.83;17.00;;;7.50;98.70;;;;;;825612;173;26487;-77
2024/01/30 06:35:45;;;;;;;32.13;18.33;;;7.60;98.70;;;;;;826434;173;27053;-78
2024/01/30 06:38:10;;;;;;;30.20;16.97;;;7.70;98.80;;;;;;821235;174;26412;-77
2024/01/30 06:40:37;;;;;;;28.37;18.23;;;7.70;98.70;;;;;;821908;174;26408;-78
2024/01/30 06:43:04;;;;;;;33.30;18.97;;;7.70;98.80;;;;;;818826;174;26451;-77
2024/01/30 06:45:30;;;;;;;32.57;18.33;;;7.70;98.50;;;;;;820732;174;26439;-76
2024/01/30 06:47:56;;;;;;;32.40;19.07;;;7.70;98.50;;;;;;825045;174;27041;-76
2024/01/30 06:50:23;;;;;;;36.43;19.10;;;7.70;98.80;;;;;;825677;171;26456;-75
2024/01/30 06:52:50;;;;;;;34.50;18.50;;;7.80;98.30;;;;;;794820;180;26482;-77
2024/01/30 06:55:16;;;;;;;34.10;18.67;;;7.80;98.30;;;;;;801804;176;26522;-78
2024/01/30 06:57:43;;;;;;;30.93;18.83;;;7.80;98.30;;;;;;816030;174;26535;-78
2024/01/30 07:00:10;;;;;;;32.57;18.80;;;7.80;98.20;;;;;;824586;170;26539;-76
2024/01/30 07:02:36;;;;;;;32.90;19.77;;;7.80;98.40;;;;;;824697;172;26436;-77
2024/01/30 07:05:03;;;;;;;32.50;19.37;;;7.80;98.20;;;;;;823270;172;26509;-78
2024/01/30 07:07:30;;;;;;;32.80;18.13;;;7.90;98.00;;;;;;822859;172;26983;-77
2024/01/30 07:09:56;;;;;;;33.00;18.77;;;8.00;98.10;;;;;;821553;172;26459;-76
2024/01/30 07:12:24;;;;;;;31.10;17.17;;;7.90;97.80;;;;;;821148;173;26425;-77
2024/01/30 07:14:50;;;;;;;34.60;18.70;;;7.90;97.70;;;;;;822355;173;26901;-77
2024/01/30 07:17:16;;;;;;;28.90;18.43;;;7.90;97.80;;;;;;824186;173;26425;-75
2024/01/30 07:19:43;;;;;;;33.77;17.70;;;7.80;97.80;;;;;;823749;173;27983;-76
2024/01/30 07:22:09;;;;;;;32.20;19.07;;;7.80;97.90;;;;;;826758;173;26410;-77
2024/01/30 07:24:36;;;;;;;32.27;18.20;;;7.80;98.00;;;;;;824688;173;26959;-76
2024/01/30 07:27:03;;;;;;;28.67;18.00;;;7.80;97.90;;;;;;823593;173;26976;-77
2024/01/30 07:29:29;;;;;;;30.67;18.57;;;7.80;97.90;;;;;;826793;172;26425;-76
2024/01/30 07:31:56;;;;;;;34.43;18.17;;;7.80;98.00;;;;;;824095;173;26401;-79
2024/01/30 07:34:22;;;;;;;33.57;18.37;;;7.80;98.00;;;;;;825197;173;26400;-77
2024/01/30 07:36:49;;;;;;;33.27;17.03;;;7.90;97.90;;;;;;823456;173;26409;-78
2024/01/30 07:39:16;;;;;;;32.67;17.93;;;7.90;98.00;;;;;;825114;171;26461;-76
2024/01/30 07:41:42;;;;;;;30.93;18.17;;;7.90;97.90;;;;;;821380;173;26459;-76
2024/01/30 07:44:09;;;;;;;34.40;17.77;;;7.90;97.70;;;;;;827648;173;26403;-76
2024/01/30 07:46:35;;;;;;;34.43;17.57;;;7.90;97.70;;;;;;828247;172;26428;-77
2024/01/30 07:49:02;;;;;;;37.00;17.77;;;8.00;97.70;;;;;;815004;174;26454;-77
2024/01/30 07:51:31;;;;;;;28.83;16.70;;;8.00;97.70;;;;;;826168;173;26434;-77
2024/01/30 07:53:55;;;;;;;35.97;16.97;;;8.00;97.60;;;;;;823064;173;26966;-76
2024/01/30 07:56:25;;;;;;;28.70;16.30;;;8.10;97.40;;;;;;825882;173;26432;-78
2024/01/30 07:58:53;;;;;;;29.97;17.43;;;8.20;97.40;;;;;;826130;173;26424;-76
2024/01/30 08:01:19;;;;;;;33.57;17.47;;;8.20;97.50;;;;;;830310;171;26465;-76
2024/01/30 08:03:45;;;;;;;29.60;16.93;;;8.30;97.30;;;;;;815941;175;26428;-76
2024/01/30 08:06:14;;;;;;;31.93;17.00;;;8.30;96.90;;;;;;812920;173;26429;-77
2024/01/30 08:08:40;;;;;;;27.97;16.27;;;8.40;97.10;;;;;;815014;175;26985;-77
2024/01/30 08:11:07;;;;;;;25.37;15.43;;;8.50;96.50;;;;;;824427;172;26604;-78
2024/01/30 08:13:34;;;;;;;35.10;17.30;;;8.50;96.50;;;;;;829289;173;26472;-78
2024/01/30 08:16:01;;;;;;;31.30;17.03;;;8.50;96.60;;;;;;828194;173;26415;-77
2024/01/30 08:18:28;;;;;;;29.53;16.50;;;8.50;96.80;;;;;;831141;173;26465;-77
2024/01/30 08:20:58;;;;;;;26.70;16.83;;;8.60;96.30;;;;;;827252;172;26402;-77
2024/01/30 08:23:25;;;;;;;32.07;16.40;;;8.60;96.20;;;;;;829960;173;26398;-78
2024/01/30 08:25:51;;;;;;;27.47;15.87;;;8.60;96.20;;;;;;829092;172;26406;-77
2024/01/30 08:28:18;;;;;;;30.50;16.70;;;8.60;96.40;;;;;;831001;173;26401;-78
2024/01/30 08:30:47;;;;;;;33.60;18.10;;;8.60;96.40;;;;;;827156;173;26426;-77
2024/01/30 08:33:13;;;;;;;32.10;17.57;;;8.70;96.00;;;;;;824698;173;26449;-77
2024/01/30 08:35:40;;;;;;;31.23;17.17;;;8.70;95.90;;;;;;827033;173;26400;-77
2024/01/30 08:38:15;;;;;;;28.53;16.43;;;8.80;95.80;;;;;;825790;173;26499;-77
2024/01/30 08:40:41;;;;;;;32.03;16.13;;;8.80;95.70;;;;;;824376;172;26396;-77
2024/01/30 08:43:10;;;;;;;28.97;16.30;;;8.80;96.00;;;;;;817746;175;26400;-77
2024/01/30 08:45:35;;;;;;;30.60;17.27;;;8.80;95.80;;;;;;829826;173;26995;-76
2024/01/30 08:48:01;;;;;;;28.70;16.23;;;8.80;95.60;;;;;;826246;173;26413;-77
2024/01/30 08:50:28;;;;;;;28.77;17.00;;;8.90;95.50;;;;;;821732;170;26438;-77
2024/01/30 08:52:54;;;;;;;31.47;16.87;;;8.90;95.40;;;;;;819134;175;26412;-77
2024/01/30 08:55:21;;;;;;;30.43;15.77;;;8.90;95.50;;;;;;805892;176;26426;-77
2024/01/30 08:57:48;;;;;;;29.87;16.13;;;9.00;95.40;;;;;;824686;174;26605;-76
2024/01/30 09:00:15;;;;;;;28.47;16.47;;;9.00;95.00;;;;;;829738;173;26451;-77
2024/01/30 09:02:41;;;;;;;30.00;15.90;;;9.00;95.10;;;;;;826198;172;26407;-77
2024/01/30 09:05:08;;;;;;;29.63;16.77;;;9.10;94.90;;;;;;821676;175;26435;-77
2024/01/30 09:07:35;;;;;;;30.90;16.90;;;9.20;94.90;;;;;;818492;175;26427;-76
2024/01/30 09:10:02;;;;;;;32.07;17.77;;;9.20;94.70;;;;;;812016;176;26526;-76
2024/01/30 09:12:29;;;;;;;28.87;17.17;;;9.20;95.10;;;;;;828832;171;26389;-77
2024/01/30 09:14:56;;;;;;;35.97;17.30;;;9.30;94.90;;;;;;830551;172;26434;-77
2024/01/30 09:17:22;;;;;;;30.20;17.33;;;9.40;94.50;;;;;;820811;174;28022;-77
2024/01/30 09:19:49;;;;;;;40.50;18.20;;;9.50;94.70;;;;;;822358;174;26451;-78
2024/01/30 09:22:16;;;;;;;28.17;15.53;;;9.60;94.60;;;;;;829154;173;26409;-77
2024/01/30 09:24:42;;;;;;;32.93;17.30;;;9.80;93.90;;;;;;826756;173;26415;-76
2024/01/30 09:27:09;;;;;;;27.60;16.13;;;9.90;94.10;;;;;;828326;173;26403;-78
2024/01/30 09:29:36;;;;;;;25.43;15.23;;;9.90;93.90;;;;;;829603;171;26422;-77
2024/01/30 09:32:03;;;;;;;24.30;15.30;;;10.00;93.00;;;;;;830275;172;26424;-75
2024/01/30 09:34:29;;;;;;;24.83;15.60;;;10.00;93.00;;;;;;828519;173;26427;-78
2024/01/30 09:36:56;;;;;;;27.53;15.87;;;10.00;92.50;;;;;;797070;180;26447;-78
2024/01/30 09:39:22;;;;;;;27.83;15.23;;;10.10;92.40;;;;;;800887;177;26465;-77
2024/01/30 09:41:50;;;;;;;30.27;15.97;;;10.20;92.60;;;;;;819729;174;26407;-77
2024/01/30 09:44:18;;;;;;;34.83;15.70;;;10.20;92.40;;;;;;831077;173;26400;-77
2024/01/30 09:46:44;;;;;;;29.07;16.20;;;10.20;92.20;;;;;;827913;173;26402;-78
2024/01/30 09:49:11;;;;;;;22.67;15.27;;;10.30;92.20;;;;;;829600;170;26556;-78
2024/01/30 09:51:38;;;;;;;28.03;15.50;;;10.40;92.30;;;;;;827055;173;26444;-78
2024/01/30 09:54:04;;;;;;;29.80;17.00;;;10.50;91.60;;;;;;821391;175;26587;-78
2024/01/30 09:56:31;;;;;;;40.73;17.67;;;10.50;91.80;;;;;;821305;175;26467;-77
2024/01/30 09:58:57;;;;;;;36.23;17.43;;;10.40;91.80;;;;;;821825;173;26460;-78
2024/01/30 10:01:24;;;;;;;35.67;19.33;;;10.50;91.80;;;;;;827041;173;26497;-77
2024/01/30 10:03:52;;;;;;;30.07;16.13;;;10.60;91.90;;;;;;828914;173;26966;-78
2024/01/30 10:06:17;;;;;;;33.43;16.53;;;10.70;91.40;;;;;;821765;173;26982;-77
2024/01/30 10:08:44;;;;;;;30.63;16.33;;;10.80;91.50;;;;;;827811;173;26435;-78
2024/01/30 10:11:11;;;;;;;27.10;15.87;;;10.80;91.30;;;;;;830853;173;26445;-77
2024/01/30 10:13:37;;;;;;;34.03;15.90;;;10.90;91.50;;;;;;831438;172;26957;-77
2024/01/30 10:16:06;;;;;;;27.30;15.33;;;10.90;90.90;;;;;;830421;173;26424;-78
2024/01/30 10:18:31;;;;;;;23.83;15.10;;;11.00;91.30;;;;;;822981;174;26452;-77
2024/01/30 10:20:57;;;;;;;27.10;15.10;;;11.10;90.80;;;;;;823001;175;26960;-78
2024/01/30 10:23:24;;;;;;;31.87;16.57;;;11.20;90.90;;;;;;823657;172;26407;-77
2024/01/30 10:25:51;;;;;;;26.97;15.50;;;11.20;90.70;;;;;;825526;172;26399;-78
2024/01/30 10:28:18;;;;;;;26.10;15.77;;;11.20;90.80;;;;;;824287;174;26415;-77
2024/01/30 10:30:44;;;;;;;27.13;15.03;;;11.20;91.00;;;;;;827330;173;26409;-77
2024/01/30 10:33:11;;;;;;;27.83;15.03;;;11.20;91.00;;;;;;827410;173;26994;-73
2024/01/30 10:35:37;;;;;;;23.97;14.50;;;11.20;91.10;;;;;;827724;173;26431;-78
2024/01/30 10:38:04;;;;;;;23.33;14.70;;;11.10;91.00;;;;;;829140;172;26411;-76
2024/01/30 10:40:31;;;;;;;26.40;14.67;;;11.00;91.60;;;;;;829461;172;26417;-76
2024/01/30 10:42:57;;;;;;;28.40;14.80;;;11.00;91.50;;;;;;819611;173;26410;-78
2024/01/30 10:45:24;;;;;;;28.07;15.83;;;11.10;91.60;;;;;;827366;173;26438;-78
2024/01/30 10:47:51;;;;;;;27.77;14.97;;;11.20;92.00;;;;;;814722;175;26427;-77
2024/01/30 10:50:17;;;;;;;25.57;14.47;;;11.10;91.30;;;;;;819757;175;26443;-77
2024/01/30 10:52:44;;;;;;;28.13;14.77;;;11.40;91.50;;;;;;799870;176;26443;-77
2024/01/30 10:55:11;;;;;;;23.67;13.50;;;11.50;91.20;;;;;;826969;173;26411;-79
2024/01/30 10:57:38;;;;;;;25.40;13.57;;;11.60;90.50;;;;;;806386;174;26406;-77
2024/01/30 11:00:06;;;;;;;23.97;15.03;;;11.60;90.40;;;;;;821182;173;26442;-78
2024/01/30 11:02:32;;;;;;;30.53;15.30;;;11.50;90.40;;;;;;824555;173;26419;-78
2024/01/30 11:04:59;;;;;;;27.80;14.43;;;11.50;90.80;;;;;;828216;173;26410;-78
2024/01/30 11:07:27;;;;;;;29.63;14.97;;;11.60;90.90;;;;;;828735;173;26409;-77
2024/01/30 11:09:54;;;;;;;27.67;13.77;;;11.60;91.20;;;;;;828632;173;26964;-77
2024/01/30 11:12:23;;;;;;;21.60;13.70;;;11.70;90.80;;;;;;826035;173;26417;-77
2024/01/30 11:14:50;;;;;;;22.67;14.60;;;11.70;90.40;;;;;;828402;173;27632;-77
2024/01/30 11:17:17;;;;;;;22.90;14.97;;;11.70;90.30;;;;;;828904;172;26398;-77
2024/01/30 11:19:43;;;;;;;29.73;15.37;;;11.80;90.40;;;;;;797991;180;26481;-78
2024/01/30 11:22:09;;;;;;;23.03;14.93;;;11.80;90.30;;;;;;824448;173;26411;-75
2024/01/30 11:24:42;;;;;;;32.20;14.03;;;11.90;90.00;;;;;;796422;180;26468;-78
2024/01/30 11:27:10;;;;;;;23.63;13.30;;;12.00;90.00;;;;;;800879;176;26427;-78
2024/01/30 11:29:36;;;;;;;25.83;14.03;;;12.10;90.00;;;;;;795768;174;26527;-80
2024/01/30 11:32:03;;;;;;;28.83;14.30;;;12.20;89.90;;;;;;795332;179;26459;-77
2024/01/30 11:34:29;;;;;;;25.57;14.53;;;12.30;88.80;;;;;;777066;183;26472;-78
2024/01/30 11:36:59;;;;;;;32.47;14.00;;;12.40;89.20;;;;;;779568;183;26487;-79
2024/01/30 11:39:26;;;;;;;30.37;14.07;;;12.50;88.50;;;;;;775488;184;26531;-80
2024/01/30 11:41:53;;;;;;;25.27;13.57;;;12.60;87.80;;;;;;766186;186;26475;-79
2024/01/30 11:44:21;;;;;;;37.27;14.43;;;12.50;87.50;;;;;;768524;186;26998;-78
2024/01/30 11:46:48;;;;;;;26.10;13.77;;;12.60;87.50;;;;;;771465;185;27035;-76
2024/01/30 11:49:15;;;;;;;28.00;13.47;;;12.60;87.70;;;;;;767168;184;27054;-80
2024/01/30 11:51:42;;;;;;;24.27;12.73;;;12.70;87.30;;;;;;768576;185;26480;-79
2024/01/30 11:54:08;;;;;;;28.63;13.40;;;12.90;87.10;;;;;;765601;185;26466;-81
2024/01/30 11:56:35;;;;;;;26.93;14.17;;;12.80;86.80;;;;;;771742;183;26470;-79
2024/01/30 11:59:01;;;;;;;25.40;13.60;;;12.90;86.40;;;;;;776963;180;26489;-79
2024/01/30 12:01:28;;;;;;;22.03;13.33;;;12.80;86.20;;;;;;778526;184;26666;-79
2024/01/30 12:03:56;;;;;;;22.10;13.83;;;12.70;87.00;;;;;;768688;185;26491;-79
2024/01/30 12:06:21;;;;;;;25.47;13.63;;;12.60;87.70;;;;;;774306;185;26512;-80
2024/01/30 12:08:56;;;;;;;28.53;12.97;;;12.60;87.30;;;;;;778742;181;26486;-77
2024/01/30 12:11:23;;;;;;;23.80;13.23;;;12.70;87.90;;;;;;772848;185;26676;-80
2024/01/30 12:13:49;;;;;;;27.97;13.07;;;12.70;87.30;;;;;;766183;186;26447;-79
2024/01/30 12:16:16;;;;;;;21.60;13.03;;;12.60;88.20;;;;;;772438;185;26591;-77
2024/01/30 12:18:43;;;;;;;23.77;12.93;;;12.60;87.90;;;;;;774907;185;26475;-78
2024/01/30 12:21:09;;;;;;;26.30;13.77;;;12.50;89.10;;;;;;774451;185;26469;-79
2024/01/30 12:23:36;;;;;;;25.03;14.20;;;12.70;89.00;;;;;;772696;185;26809;-81
2024/01/30 12:26:03;;;;;;;26.70;13.17;;;12.80;88.80;;;;;;773256;186;26498;-80
2024/01/30 12:28:30;;;;;;;25.37;12.77;;;12.80;87.60;;;;;;773640;186;26693;-79
2024/01/30 12:30:57;;;;;;;25.53;13.57;;;12.80;87.00;;;;;;772584;185;27109;-79